Time;durP1;ratioP1;P1;durP2;ratioP2;P2;SDS_P1;SDS_P2;PMS_P1;PMS_P2;Temp;Humidity;BMP_temperature;BMP_pressure;BME280_temperature;BME280_humidity;BME280_pressure;Samples;Min_cycle;Max_cycle;Signal;HPM_P1;HPM_P2
2023/10/12 00:00:24;;;;;;;;;;;;;;;;;;5062186;28;1158;-67
2023/10/12 00:02:50;;;;;;;;;;;;;;;;;;5070870;28;1190;-67
2023/10/12 00:05:18;;;;;;;;;;;;;;;;;;5072220;28;921;-67
2023/10/12 00:07:45;;;;;;;;;;;;;;;;;;5072283;28;928;-67
2023/10/12 00:12:41;;;;;;;;;;;;;;;;;;5072257;28;1972;-67
2023/10/12 00:15:21;;;;;;;;;;;;;;;;;;5070126;28;1156;-67
2023/10/12 00:17:56;;;;;;;;;;;;;;;;;;5072397;28;931;-67
2023/10/12 00:22:58;;;;;;;;;;;;;;;;;;5071845;28;769;-67
2023/10/12 00:25:24;;;;;;;;;;;;;;;;;;5072341;28;923;-67
2023/10/12 00:27:50;;;;;;;;;;;;;;;;;;5071165;28;935;-67
2023/10/12 00:30:17;;;;;;;;;;;;;;;;;;5071749;28;944;-67
2023/10/12 00:32:42;;;;;;;;;;;;;;;;;;5072124;28;1898;-67
2023/10/12 00:35:17;;;;;;;;;;;;;;;;;;5072045;28;829;-67
2023/10/12 00:37:43;;;;;;;;;;;;;;;;;;5072042;28;940;-67
2023/10/12 00:42:53;;;;;;;;;;;;;;;;;;5072834;28;719;-67
2023/10/12 00:45:34;;;;;;;;;;;;;;;;;;5072080;28;1092;-67
2023/10/12 00:48:08;;;;;;;;;;;;;;;;;;5071698;28;915;-66
2023/10/12 00:50:36;;;;;;;;;;;;;;;;;;5072377;28;903;-67
2023/10/12 00:53:22;;;;;;;;;;;;;;;;;;5070066;28;1967;-67
2023/10/12 00:55:47;;;;;;;;;;;;;;;;;;5071777;28;856;-67
2023/10/12 00:58:14;;;;;;;;;;;;;;;;;;5070819;28;840;-67
2023/10/12 01:00:46;;;;;;;;;;;;;;;;;;5071273;28;956;-66
2023/10/12 01:08:42;;;;;;;;;;;;;;;;;;5071555;28;733;-67
2023/10/12 01:11:07;;;;;;;;;;;;;;;;;;5071216;28;891;-67
2023/10/12 01:13:33;;;;;;;;;;;;;;;;;;5071805;28;1917;-67
2023/10/12 01:16:02;;;;;;;;;;;;;;;;;;5071189;28;793;-67
2023/10/12 01:18:28;;;;;;;;;;;;;;;;;;5071139;28;857;-66
2023/10/12 01:20:53;;;;;;;;;;;;;;;;;;5071143;28;867;-67
2023/10/12 01:23:18;;;;;;;;;;;;;;;;;;5070573;28;903;-66
2023/10/12 01:25:47;;;;;;;;;;;;;;;;;;5070821;28;900;-67
2023/10/12 01:28:12;;;;;;;;;;;;;;;;;;5069879;28;880;-67
2023/10/12 01:30:39;;;;;;;;;;;;;;;;;;5070828;28;1034;-67
2023/10/12 01:33:04;;;;;;;;;;;;;;;;;;5070128;28;1902;-67
2023/10/12 01:35:33;;;;;;;;;;;;;;;;;;5069678;28;1394;-66
2023/10/12 01:38:03;;;;;;;;;;;;;;;;;;5070828;28;857;-67
2023/10/12 01:40:42;;;;;;;;;;;;;;;;;;5071021;28;1056;-66
2023/10/12 01:43:12;;;;;;;;;;;;;;;;;;5069974;28;872;-66
2023/10/12 01:45:43;;;;;;;;;;;;;;;;;;5070477;28;916;-67
2023/10/12 01:48:12;;;;;;;;;;;;;;;;;;5070224;28;915;-66
2023/10/12 01:50:38;;;;;;;;;;;;;;;;;;5069453;28;1215;-66
2023/10/12 01:53:08;;;;;;;;;;;;;;;;;;5069680;28;1910;-67
2023/10/12 01:55:33;;;;;;;;;;;;;;;;;;5071079;28;877;-66
2023/10/12 01:57:58;;;;;;;;;;;;;;;;;;5070903;28;928;-67
2023/10/12 02:00:27;;;;;;;;;;;;;;;;;;5070117;28;1043;-66
2023/10/12 02:03:12;;;;;;;;;;;;;;;;;;5070759;28;915;-67
2023/10/12 02:05:38;;;;;;;;;;;;;;;;;;5072099;28;860;-66
2023/10/12 02:08:05;;;;;;;;;;;;;;;;;;5074193;28;1114;-67
2023/10/12 02:10:41;;;;;;;;;;;;;;;;;;5074340;28;924;-66
2023/10/12 02:13:07;;;;;;;;;;;;;;;;;;5073549;28;1961;-66
2023/10/12 02:15:32;;;;;;;;;;;;;;;;;;5074092;28;813;-66
2023/10/12 02:17:59;;;;;;;;;;;;;;;;;;5074141;28;853;-67
2023/10/12 02:20:32;;;;;;;;;;;;;;;;;;5073338;28;833;-67
2023/10/12 02:23:00;;;;;;;;;;;;;;;;;;5073999;28;836;-67
2023/10/12 02:25:28;;;;;;;;;;;;;;;;;;5072992;28;1108;-67
2023/10/12 02:27:56;;;;;;;;;;;;;;;;;;5075089;28;915;-67
2023/10/12 02:30:28;;;;;;;;;;;;;;;;;;5072777;28;738;-67
2023/10/12 02:33:12;;;;;;;;;;;;;;;;;;5073698;28;1933;-67
2023/10/12 02:35:44;;;;;;;;;;;;;;;;;;5074672;28;1160;-67
2023/10/12 02:38:14;;;;;;;;;;;;;;;;;;5074464;28;829;-67
2023/10/12 02:40:41;;;;;;;;;;;;;;;;;;5074359;28;943;-66
2023/10/12 02:43:09;;;;;;;;;;;;;;;;;;5072075;28;1337;-67
2023/10/12 02:45:40;;;;;;;;;;;;;;;;;;5073715;28;872;-67
2023/10/12 02:48:07;;;;;;;;;;;;;;;;;;5073253;28;844;-66
2023/10/12 02:50:48;;;;;;;;;;;;;;;;;;5073397;28;940;-67
2023/10/12 02:53:13;;;;;;;;;;;;;;;;;;5073052;28;1913;-67
2023/10/12 02:55:43;;;;;;;;;;;;;;;;;;5073765;28;935;-67
2023/10/12 02:58:18;;;;;;;;;;;;;;;;;;5073012;28;929;-67
2023/10/12 03:00:54;;;;;;;;;;;;;;;;;;5073505;28;985;-67
2023/10/12 03:03:26;;;;;;;;;;;;;;;;;;5073249;28;911;-67
2023/10/12 03:05:53;;;;;;;;;;;;;;;;;;5073429;28;1019;-66
2023/10/12 03:08:20;;;;;;;;;;;;;;;;;;5073479;28;824;-67
2023/10/12 03:11:01;;;;;;;;;;;;;;;;;;5073659;28;887;-67
2023/10/12 03:13:34;;;;;;;;;;;;;;;;;;5073624;28;1970;-67
2023/10/12 03:16:03;;;;;;;;;;;;;;;;;;5072930;28;910;-67
2023/10/12 03:18:29;;;;;;;;;;;;;;;;;;5072909;28;872;-67
2023/10/12 03:21:11;;;;;;;;;;;;;;;;;;5073505;28;856;-66
2023/10/12 03:23:38;;;;;;;;;;;;;;;;;;5073499;28;824;-67
2023/10/12 03:26:05;;;;;;;;;;;;;;;;;;5073303;28;887;-67
2023/10/12 03:28:30;;;;;;;;;;;;;;;;;;5072950;28;889;-67
2023/10/12 03:33:56;;;;;;;;;;;;;;;;;;5049720;28;1949;-67
2023/10/12 03:36:25;;;;;;;;;;;;;;;;;;5071194;28;833;-67
2023/10/12 03:52:20;;;;;;;;;;;;;;;;;;5072634;28;1918;-67
2023/10/12 03:57:39;;;;;;;;;;;;;;;;;;5073383;28;860;-67
2023/10/12 04:05:21;;;;;;;;;;;;;;;;;;5072381;28;856;-67
2023/10/12 04:18:32;;;;;;;;;;;;;;;;;;5072598;28;829;-67
2023/10/12 04:20:58;;;;;;;;;;;;;;;;;;5072763;28;896;-67
2023/10/12 04:28:38;;;;;;;;;;;;;;;;;;5072619;28;852;-67
2023/10/12 04:36:23;;;;;;;;;;;;;;;;;;5071802;28;738;-67
2023/10/12 04:38:57;;;;;;;;;;;;;;;;;;5071599;28;888;-67
2023/10/12 04:43:53;;;;;;;;;;;;;;;;;;5071960;28;693;-67
2023/10/12 04:48:58;;;;;;;;;;;;;;;;;;5071108;28;1251;-67
2023/10/12 04:51:30;;;;;;;;;;;;;;;;;;5071411;28;1188;-67
2023/10/12 04:53:57;;;;;;;;;;;;;;;;;;5071636;28;1914;-67
2023/10/12 04:56:30;;;;;;;;;;;;;;;;;;5070092;28;1791;-67
2023/10/12 04:59:14;;;;;;;;;;;;;;;;;;5072214;28;923;-67
2023/10/12 05:02:01;;;;;;;;;;;;;;;;;;5071463;28;888;-67
2023/10/12 05:04:49;;;;;;;;;;;;;;;;;;5071002;28;1617;-67
2023/10/12 05:09:51;;;;;;;;;;;;;;;;;;5071353;28;942;-67
2023/10/12 05:12:17;;;;;;;;;;;;;;;;;;5070915;28;1948;-67
2023/10/12 05:14:42;;;;;;;;;;;;;;;;;;5071224;28;1305;-67
2023/10/12 05:17:08;;;;;;;;;;;;;;;;;;5071164;28;916;-67
2023/10/12 05:19:33;;;;;;;;;;;;;;;;;;5071003;28;833;-67
2023/10/12 05:21:59;;;;;;;;;;;;;;;;;;5071192;28;939;-67
2023/10/12 05:24:24;;;;;;;;;;;;;;;;;;5071072;28;828;-67
2023/10/12 05:26:58;;;;;;;;;;;;;;;;;;5071112;28;742;-67
2023/10/12 05:31:59;;;;;;;;;;;;;;;;;;5070651;28;866;-67
2023/10/12 05:34:44;;;;;;;;;;;;;;;;;;5070379;28;1902;-67
2023/10/12 05:39:50;;;;;;;;;;;;;;;;;;5072909;28;891;-67
2023/10/12 05:42:19;;;;;;;;;;;;;;;;;;5074606;28;939;-67
2023/10/12 05:44:44;;;;;;;;;;;;;;;;;;5073360;28;2250;-67
2023/10/12 05:47:13;;;;;;;;;;;;;;;;;;5074576;28;836;-67
2023/10/12 05:49:40;;;;;;;;;;;;;;;;;;5074508;28;892;-67
2023/10/12 05:52:06;;;;;;;;;;;;;;;;;;5074352;28;1242;-67
2023/10/12 05:54:32;;;;;;;;;;;;;;;;;;5058097;28;1914;-67
2023/10/12 05:57:03;;;;;;;;;;;;;;;;;;5073717;28;1266;-67
2023/10/12 05:59:29;;;;;;;;;;;;;;;;;;5074410;28;920;-67
2023/10/12 06:01:54;;;;;;;;;;;;;;;;;;5073636;28;864;-67
2023/10/12 06:04:19;;;;;;;;;;;;;;;;;;5074273;28;987;-67
2023/10/12 06:06:46;;;;;;;;;;;;;;;;;;5074832;28;898;-67
2023/10/12 06:09:12;;;;;;;;;;;;;;;;;;5074463;28;923;-67
2023/10/12 06:11:45;;;;;;;;;;;;;;;;;;5075510;28;1183;-68
2023/10/12 06:14:12;;;;;;;;;;;;;;;;;;5074696;28;1953;-67
2023/10/12 06:16:40;;;;;;;;;;;;;;;;;;5075264;28;911;-67
2023/10/12 06:19:06;;;;;;;;;;;;;;;;;;5075349;28;852;-67
2023/10/12 06:21:42;;;;;;;;;;;;;;;;;;5075110;28;896;-67
2023/10/12 06:24:11;;;;;;;;;;;;;;;;;;5075744;28;987;-66
2023/10/12 06:26:36;;;;;;;;;;;;;;;;;;5074228;28;876;-66
2023/10/12 06:29:02;;;;;;;;;;;;;;;;;;5075248;28;837;-66
2023/10/12 06:31:29;;;;;;;;;;;;;;;;;;5074237;28;900;-66
2023/10/12 06:33:55;;;;;;;;;;;;;;;;;;5075585;28;1886;-67
2023/10/12 06:36:36;;;;;;;;;;;;;;;;;;5074975;28;903;-67
2023/10/12 06:40:03;;;;;;;;;;;;;;;;;;5074480;28;895;-67
2023/10/12 06:44:27;;;;;;;;;;;;;;;;;;5073203;28;767;-67
2023/10/12 06:46:53;;;;;;;;;;;;;;;;;;5074307;28;904;-67
2023/10/12 06:49:22;;;;;;;;;;;;;;;;;;5072532;28;1264;-67
2023/10/12 06:51:54;;;;;;;;;;;;;;;;;;5071952;28;1226;-67
2023/10/12 06:59:52;;;;;;;;;;;;;;;;;;5073011;28;821;-67
2023/10/12 07:02:22;;;;;;;;;;;;;;;;;;5053423;28;1175;-67
2023/10/12 07:04:53;;;;;;;;;;;;;;;;;;5047258;28;1124;-67
2023/10/12 07:07:26;;;;;;;;;;;;;;;;;;5049914;28;1085;-67
2023/10/12 07:09:52;;;;;;;;;;;;;;;;;;5050517;28;1132;-67
2023/10/12 07:12:20;;;;;;;;;;;;;;;;;;5059250;28;1898;-67
2023/10/12 07:14:55;;;;;;;;;;;;;;;;;;5066984;28;1214;-67
2023/10/12 07:17:31;;;;;;;;;;;;;;;;;;5070538;28;1152;-67
2023/10/12 07:19:57;;;;;;;;;;;;;;;;;;5072988;28;844;-67
2023/10/12 07:22:23;;;;;;;;;;;;;;;;;;5072197;28;852;-67
2023/10/12 07:24:57;;;;;;;;;;;;;;;;;;5072041;28;1163;-67
2023/10/12 07:27:23;;;;;;;;;;;;;;;;;;5072197;28;901;-67
2023/10/12 07:30:33;;;;;;;;;;;;;;;;;;5070558;28;852;-68
2023/10/12 07:32:55;;;;;;;;;;;;;;;;;;5070428;28;1953;-67
2023/10/12 07:35:31;;;;;;;;;;;;;;;;;;5072995;28;975;-67
2023/10/12 07:38:00;;;;;;;;;;;;;;;;;;5073212;28;891;-67
2023/10/12 07:40:34;;;;;;;;;;;;;;;;;;5073300;28;863;-67
2023/10/12 07:43:04;;;;;;;;;;;;;;;;;;5073009;28;1626;-67
2023/10/12 07:45:33;;;;;;;;;;;;;;;;;;5072687;28;817;-67
2023/10/12 07:48:02;;;;;;;;;;;;;;;;;;5073181;28;857;-67
2023/10/12 07:50:28;;;;;;;;;;;;;;;;;;5072752;28;895;-67
2023/10/12 07:53:06;;;;;;;;;;;;;;;;;;5072658;28;1906;-67
2023/10/12 07:55:41;;;;;;;;;;;;;;;;;;5072403;28;861;-67
2023/10/12 07:58:12;;;;;;;;;;;;;;;;;;5071950;28;908;-67
2023/10/12 08:00:41;;;;;;;;;;;;;;;;;;5072906;28;816;-67
2023/10/12 08:03:18;;;;;;;;;;;;;;;;;;5072419;28;900;-67
2023/10/12 08:05:44;;;;;;;;;;;;;;;;;;5072610;28;1040;-67
2023/10/12 08:08:17;;;;;;;;;;;;;;;;;;5073200;28;825;-68
2023/10/12 08:13:32;;;;;;;;;;;;;;;;;;5072927;28;1906;-67
2023/10/12 08:15:59;;;;;;;;;;;;;;;;;;5073142;28;848;-67
2023/10/12 08:21:31;;;;;;;;;;;;;;;;;;5073004;28;721;-67
2023/10/12 08:24:04;;;;;;;;;;;;;;;;;;5072847;28;860;-67
2023/10/12 08:26:35;;;;;;;;;;;;;;;;;;5072458;28;860;-67
2023/10/12 08:29:17;;;;;;;;;;;;;;;;;;5072258;28;887;-68
2023/10/12 08:31:43;;;;;;;;;;;;;;;;;;5070835;28;942;-67
2023/10/12 08:39:50;;;;;;;;;;;;;;;;;;5071549;28;887;-67
2023/10/12 08:44:50;;;;;;;;;;;;;;;;;;5071273;28;674;-67
2023/10/12 08:47:26;;;;;;;;;;;;;;;;;;5071502;28;891;-67
2023/10/12 08:52:27;;;;;;;;;;;;;;;;;;5071196;28;1975;-67
2023/10/12 08:55:11;;;;;;;;;;;;;;;;;;5071824;28;801;-67
2023/10/12 08:57:43;;;;;;;;;;;;;;;;;;5071287;28;876;-67
2023/10/12 09:02:52;;;;;;;;;;;;;;;;;;5071855;28;721;-68
2023/10/12 09:05:24;;;;;;;;;;;;;;;;;;5070624;28;940;-67
2023/10/12 09:08:05;;;;;;;;;;;;;;;;;;5071261;28;1003;-67
2023/10/12 09:10:51;;;;;;;;;;;;;;;;;;5071437;28;846;-66
2023/10/12 09:13:17;;;;;;;;;;;;;;;;;;5070125;28;1961;-67
2023/10/12 09:15:45;;;;;;;;;;;;;;;;;;5069335;28;1123;-67
2023/10/12 09:18:11;;;;;;;;;;;;;;;;;;5071129;28;911;-67
2023/10/12 09:20:40;;;;;;;;;;;;;;;;;;5071659;28;836;-67
2023/10/12 09:23:14;;;;;;;;;;;;;;;;;;5071390;28;876;-67
2023/10/12 09:28:25;;;;;;;;;;;;;;;;;;5071298;28;743;-68
2023/10/12 09:30:51;;;;;;;;;;;;;;;;;;5071429;28;897;-67
2023/10/12 09:36:01;;;;;;;;;;;;;;;;;;5069560;28;1167;-67
2023/10/12 09:38:30;;;;;;;;;;;;;;;;;;5071568;28;866;-67
2023/10/12 09:40:59;;;;;;;;;;;;;;;;;;5071736;28;903;-67
2023/10/12 09:43:26;;;;;;;;;;;;;;;;;;5071124;28;839;-68
2023/10/12 09:45:58;;;;;;;;;;;;;;;;;;5071515;28;975;-67
2023/10/12 09:48:29;;;;;;;;;;;;;;;;;;5071054;28;945;-68
2023/10/12 09:50:55;;;;;;;;;;;;;;;;;;5072178;28;852;-68
2023/10/12 09:53:26;;;;;;;;;;;;;;;;;;5070287;28;1981;-68
2023/10/12 09:56:16;;;;;;;;;;;;;;;;;;5072228;28;888;-68
2023/10/12 09:58:51;;;;;;;;;;;;;;;;;;5071812;28;830;-68
2023/10/12 10:01:22;;;;;;;;;;;;;;;;;;5070777;28;1112;-68
2023/10/12 10:03:47;;;;;;;;;;;;;;;;;;5071556;28;935;-68
2023/10/12 10:11:39;;;;;;;;;;;;;;;;;;5073105;28;899;-68
2023/10/12 10:14:05;;;;;;;;;;;;;;;;;;5071979;28;1891;-67
2023/10/12 10:16:46;;;;;;;;;;;;;;;;;;5069941;28;880;-68
2023/10/12 10:19:16;;;;;;;;;;;;;;;;;;5071057;28;929;-68
2023/10/12 10:22:04;;;;;;;;;;;;;;;;;;5069289;28;1447;-68
2023/10/12 10:24:58;;;;;;;;;;;;;;;;;;5068488;28;670;-68
2023/10/12 10:27:34;;;;;;;;;;;;;;;;;;5074039;28;844;-68
2023/10/12 10:30:13;;;;;;;;;;;;;;;;;;5073904;28;855;-68
2023/10/12 10:32:39;;;;;;;;;;;;;;;;;;5073513;28;1894;-68
2023/10/12 10:35:18;;;;;;;;;;;;;;;;;;5073614;28;881;-68
2023/10/12 10:37:47;;;;;;;;;;;;;;;;;;5074099;28;833;-68
2023/10/12 10:40:17;;;;;;;;;;;;;;;;;;5072326;28;990;-67
2023/10/12 10:42:57;;;;;;;;;;;;;;;;;;5073762;28;873;-68
2023/10/12 10:45:23;;;;;;;;;;;;;;;;;;5071822;28;1162;-67
2023/10/12 10:47:49;;;;;;;;;;;;;;;;;;5072157;28;919;-68
2023/10/12 10:50:15;;;;;;;;;;;;;;;;;;5073665;28;919;-68
2023/10/12 10:52:41;;;;;;;;;;;;;;;;;;5072913;28;1950;-68
2023/10/12 10:55:10;;;;;;;;;;;;;;;;;;5073586;28;888;-68
2023/10/12 10:57:37;;;;;;;;;;;;;;;;;;5073650;28;864;-67
2023/10/12 11:00:12;;;;;;;;;;;;;;;;;;5073622;28;1202;-68
2023/10/12 11:02:38;;;;;;;;;;;;;;;;;;5073387;28;900;-68
2023/10/12 11:05:09;;;;;;;;;;;;;;;;;;5073771;28;879;-68
2023/10/12 11:07:36;;;;;;;;;;;;;;;;;;5073314;28;950;-68
2023/10/12 11:12:31;;;;;;;;;;;;;;;;;;5073309;28;1895;-67
2023/10/12 11:15:05;;;;;;;;;;;;;;;;;;5073853;28;895;-67
2023/10/12 11:17:35;;;;;;;;;;;;;;;;;;5073449;28;872;-67
2023/10/12 11:20:06;;;;;;;;;;;;;;;;;;5073415;28;975;-67
2023/10/12 11:22:33;;;;;;;;;;;;;;;;;;5073306;28;852;-68
2023/10/12 11:25:01;;;;;;;;;;;;;;;;;;5072523;28;894;-68
2023/10/12 11:27:31;;;;;;;;;;;;;;;;;;5073101;28;867;-68
2023/10/12 11:30:00;;;;;;;;;;;;;;;;;;5073690;28;602;-68
2023/10/12 11:32:28;;;;;;;;;;;;;;;;;;5072732;28;856;-68
2023/10/12 11:34:56;;;;;;;;;;;;;;;;;;5072570;28;1108;-68
2023/10/12 11:37:23;;;;;;;;;;;;;;;;;;5071655;28;991;-67
2023/10/12 11:39:52;;;;;;;;;;;;;;;;;;5073037;28;868;-68
2023/10/12 11:42:17;;;;;;;;;;;;;;;;;;5071031;28;867;-67
2023/10/12 11:44:45;;;;;;;;;;;;;;;;;;5072688;28;919;-68
2023/10/12 11:47:37;;;;;;;;;;;;;;;;;;5072414;28;933;-68
2023/10/12 11:50:02;;;;;;;;;;;;;;;;;;5073605;28;1059;-67
2023/10/12 11:52:34;;;;;;;;;;;;;;;;;;5073028;28;1212;-67
2023/10/12 11:55:06;;;;;;;;;;;;;;;;;;5072952;28;841;-68
2023/10/12 11:57:35;;;;;;;;;;;;;;;;;;5072840;28;904;-68
2023/10/12 12:00:20;;;;;;;;;;;;;;;;;;5072771;28;828;-68
2023/10/12 12:02:45;;;;;;;;;;;;;;;;;;5073475;28;920;-68
2023/10/12 12:05:11;;;;;;;;;;;;;;;;;;5072874;28;836;-67
2023/10/12 12:07:37;;;;;;;;;;;;;;;;;;5071004;28;1128;-68
2023/10/12 12:10:03;;;;;;;;;;;;;;;;;;5071228;28;994;-68
2023/10/12 12:12:28;;;;;;;;;;;;;;;;;;5072237;28;848;-67
2023/10/12 12:14:53;;;;;;;;;;;;;;;;;;5072691;28;2022;-68
2023/10/12 12:17:19;;;;;;;;;;;;;;;;;;5071777;28;875;-67
2023/10/12 12:19:44;;;;;;;;;;;;;;;;;;5072508;28;910;-68
2023/10/12 12:22:15;;;;;;;;;;;;;;;;;;5071439;28;948;-68
2023/10/12 12:24:44;;;;;;;;;;;;;;;;;;5071290;28;940;-67
2023/10/12 12:27:37;;;;;;;;;;;;;;;;;;5071305;28;884;-68
2023/10/12 12:29:56;;;;;;;;;;;;;;;;;;5071859;28;1685;-67
2023/10/12 12:32:26;;;;;;;;;;;;;;;;;;5071352;28;920;-67
2023/10/12 12:34:51;;;;;;;;;;;;;;;;;;5071626;28;1897;-67
2023/10/12 12:37:17;;;;;;;;;;;;;;;;;;5071270;28;832;-68
2023/10/12 12:39:43;;;;;;;;;;;;;;;;;;5071042;28;930;-67
2023/10/12 12:42:11;;;;;;;;;;;;;;;;;;5071180;28;842;-67
2023/10/12 12:44:39;;;;;;;;;;;;;;;;;;5071018;28;911;-67
2023/10/12 12:47:06;;;;;;;;;;;;;;;;;;5070268;28;1144;-67
2023/10/12 12:49:32;;;;;;;;;;;;;;;;;;5070320;28;904;-68
2023/10/12 12:51:58;;;;;;;;;;;;;;;;;;5071000;28;1239;-68
2023/10/12 12:54:24;;;;;;;;;;;;;;;;;;5070549;28;1914;-68
2023/10/12 12:56:53;;;;;;;;;;;;;;;;;;5070942;28;818;-67
2023/10/12 12:59:20;;;;;;;;;;;;;;;;;;5070696;28;920;-68
2023/10/12 13:01:46;;;;;;;;;;;;;;;;;;5071187;28;805;-68
2023/10/12 13:04:11;;;;;;;;;;;;;;;;;;5071006;28;876;-68
2023/10/12 13:06:38;;;;;;;;;;;;;;;;;;5071058;28;901;-67
2023/10/12 13:09:03;;;;;;;;;;;;;;;;;;5071161;28;1194;-67
2023/10/12 13:11:28;;;;;;;;;;;;;;;;;;5071069;28;955;-67
2023/10/12 13:13:54;;;;;;;;;;;;;;;;;;5071780;28;1969;-68
2023/10/12 13:16:19;;;;;;;;;;;;;;;;;;5070810;28;778;-68
2023/10/12 13:18:47;;;;;;;;;;;;;;;;;;5070898;28;1110;-68
2023/10/12 13:21:16;;;;;;;;;;;;;;;;;;5070774;28;945;-67
2023/10/12 13:23:42;;;;;;;;;;;;;;;;;;5070680;28;931;-68
2023/10/12 13:26:12;;;;;;;;;;;;;;;;;;5071324;28;828;-68
2023/10/12 13:28:38;;;;;;;;;;;;;;;;;;5070457;28;1148;-68
2023/10/12 13:31:05;;;;;;;;;;;;;;;;;;5070498;28;1168;-69
2023/10/12 13:33:31;;;;;;;;;;;;;;;;;;5069008;28;1952;-68
2023/10/12 13:35:56;;;;;;;;;;;;;;;;;;5071010;28;853;-68
2023/10/12 13:38:21;;;;;;;;;;;;;;;;;;5070737;28;1092;-68
2023/10/12 13:40:48;;;;;;;;;;;;;;;;;;5071045;28;867;-68
2023/10/12 13:43:26;;;;;;;;;;;;;;;;;;5069622;28;859;-68
2023/10/12 13:45:52;;;;;;;;;;;;;;;;;;5071442;28;930;-68
2023/10/12 13:48:22;;;;;;;;;;;;;;;;;;5071381;28;841;-68
2023/10/12 13:51:00;;;;;;;;;;;;;;;;;;5071851;28;916;-68
2023/10/12 13:53:28;;;;;;;;;;;;;;;;;;5070768;28;1914;-68
2023/10/12 13:55:54;;;;;;;;;;;;;;;;;;5072030;28;876;-68
2023/10/12 13:58:23;;;;;;;;;;;;;;;;;;5071255;28;1231;-68
2023/10/12 14:00:51;;;;;;;;;;;;;;;;;;5071861;28;947;-68
2023/10/12 14:03:17;;;;;;;;;;;;;;;;;;5075279;28;836;-68
2023/10/12 14:05:43;;;;;;;;;;;;;;;;;;5074132;28;940;-68
2023/10/12 14:08:09;;;;;;;;;;;;;;;;;;5074441;28;1010;-68
2023/10/12 14:10:44;;;;;;;;;;;;;;;;;;5073984;28;825;-68
2023/10/12 14:13:12;;;;;;;;;;;;;;;;;;5074189;28;1901;-68
2023/10/12 14:15:38;;;;;;;;;;;;;;;;;;5073974;28;848;-68
2023/10/12 14:18:10;;;;;;;;;;;;;;;;;;5074210;28;844;-68
2023/10/12 14:20:35;;;;;;;;;;;;;;;;;;5074245;28;876;-68
2023/10/12 14:23:05;;;;;;;;;;;;;;;;;;5074507;28;944;-68
2023/10/12 14:25:35;;;;;;;;;;;;;;;;;;5073607;28;907;-68
2023/10/12 14:28:00;;;;;;;;;;;;;;;;;;5074232;28;1668;-68
2023/10/12 14:30:29;;;;;;;;;;;;;;;;;;5073551;28;848;-68
2023/10/12 14:33:06;;;;;;;;;;;;;;;;;;5074321;28;1893;-68
2023/10/12 14:35:35;;;;;;;;;;;;;;;;;;5073551;28;931;-69
2023/10/12 14:38:02;;;;;;;;;;;;;;;;;;5074204;28;904;-69
2023/10/12 14:40:30;;;;;;;;;;;;;;;;;;5073331;28;1051;-68
2023/10/12 14:42:56;;;;;;;;;;;;;;;;;;5074432;28;897;-68
2023/10/12 14:45:24;;;;;;;;;;;;;;;;;;5072646;28;1674;-67
2023/10/12 14:47:49;;;;;;;;;;;;;;;;;;5072765;28;861;-67
2023/10/12 14:50:17;;;;;;;;;;;;;;;;;;5073907;28;903;-67
2023/10/12 14:52:43;;;;;;;;;;;;;;;;;;5073271;28;1909;-66
2023/10/12 14:55:12;;;;;;;;;;;;;;;;;;5072729;28;1246;-66
2023/10/12 14:57:40;;;;;;;;;;;;;;;;;;5073495;28;805;-67
2023/10/12 15:00:14;;;;;;;;;;;;;;;;;;5074231;28;955;-67
2023/10/12 15:02:40;;;;;;;;;;;;;;;;;;5073447;28;923;-66
2023/10/12 15:05:06;;;;;;;;;;;;;;;;;;5073122;28;829;-66
2023/10/12 15:07:37;;;;;;;;;;;;;;;;;;5072214;28;1167;-66
2023/10/12 15:10:02;;;;;;;;;;;;;;;;;;5073592;28;885;-66
2023/10/12 15:12:28;;;;;;;;;;;;;;;;;;5071500;28;986;-66
2023/10/12 15:14:55;;;;;;;;;;;;;;;;;;5055741;28;1975;-67
2023/10/12 15:17:21;;;;;;;;;;;;;;;;;;5073444;28;883;-67
2023/10/12 15:19:46;;;;;;;;;;;;;;;;;;5073198;28;884;-67
2023/10/12 15:22:12;;;;;;;;;;;;;;;;;;5073324;28;931;-68
2023/10/12 15:24:40;;;;;;;;;;;;;;;;;;5071642;28;1212;-67
2023/10/12 15:27:05;;;;;;;;;;;;;;;;;;5063895;28;1234;-67
2023/10/12 15:29:32;;;;;;;;;;;;;;;;;;5051299;28;1630;-67
2023/10/12 15:31:57;;;;;;;;;;;;;;;;;;5053662;28;881;-67
2023/10/12 15:34:23;;;;;;;;;;;;;;;;;;5053671;28;1912;-67
2023/10/12 15:36:48;;;;;;;;;;;;;;;;;;5054032;28;894;-67
2023/10/12 15:39:16;;;;;;;;;;;;;;;;;;5053877;28;873;-67
2023/10/12 15:41:41;;;;;;;;;;;;;;;;;;5053476;28;822;-67
2023/10/12 15:44:08;;;;;;;;;;;;;;;;;;5053578;28;869;-67
2023/10/12 15:46:34;;;;;;;;;;;;;;;;;;5052354;28;909;-67
2023/10/12 15:49:00;;;;;;;;;;;;;;;;;;5052465;28;827;-67
2023/10/12 15:51:25;;;;;;;;;;;;;;;;;;5052470;28;869;-67
2023/10/12 15:53:50;;;;;;;;;;;;;;;;;;5053109;28;1954;-67
2023/10/12 15:56:16;;;;;;;;;;;;;;;;;;5053124;28;864;-68
2023/10/12 15:58:41;;;;;;;;;;;;;;;;;;5052586;28;836;-67
2023/10/12 16:01:06;;;;;;;;;;;;;;;;;;5052450;28;890;-67
2023/10/12 16:03:32;;;;;;;;;;;;;;;;;;5052028;28;830;-67
2023/10/12 16:05:57;;;;;;;;;;;;;;;;;;5052696;28;1012;-67
2023/10/12 16:08:22;;;;;;;;;;;;;;;;;;5051543;28;884;-67
2023/10/12 16:10:50;;;;;;;;;;;;;;;;;;5051888;28;999;-67
2023/10/12 16:13:15;;;;;;;;;;;;;;;;;;5052440;28;1914;-68
2023/10/12 16:15:41;;;;;;;;;;;;;;;;;;5051901;28;927;-67
2023/10/12 16:18:08;;;;;;;;;;;;;;;;;;5052506;28;837;-67
2023/10/12 16:20:33;;;;;;;;;;;;;;;;;;5051823;28;831;-67
2023/10/12 16:22:58;;;;;;;;;;;;;;;;;;5051990;28;943;-67
2023/10/12 16:25:24;;;;;;;;;;;;;;;;;;5052083;28;868;-67
2023/10/12 16:27:50;;;;;;;;;;;;;;;;;;5052280;28;892;-67
2023/10/12 16:30:16;;;;;;;;;;;;;;;;;;5052055;28;830;-67
2023/10/12 16:32:44;;;;;;;;;;;;;;;;;;5051773;28;1898;-67
2023/10/12 16:35:09;;;;;;;;;;;;;;;;;;5052247;28;868;-67
2023/10/12 16:37:35;;;;;;;;;;;;;;;;;;5051187;28;907;-67
2023/10/12 16:40:00;;;;;;;;;;;;;;;;;;5052229;28;848;-68
2023/10/12 16:42:25;;;;;;;;;;;;;;;;;;5051695;28;1003;-67
2023/10/12 16:44:50;;;;;;;;;;;;;;;;;;5052363;28;845;-67
2023/10/12 16:47:17;;;;;;;;;;;;;;;;;;5050963;28;881;-67
2023/10/12 16:49:44;;;;;;;;;;;;;;;;;;5050919;28;826;-67
2023/10/12 16:52:11;;;;;;;;;;;;;;;;;;5051217;28;1282;-67
2023/10/12 16:54:36;;;;;;;;;;;;;;;;;;5051157;28;1910;-67
2023/10/12 16:57:02;;;;;;;;;;;;;;;;;;5060132;28;1231;-67
2023/10/12 16:59:27;;;;;;;;;;;;;;;;;;5071760;28;1010;-70
2023/10/12 17:01:55;;;;;;;;;;;;;;;;;;5070871;28;923;-67
2023/10/12 17:04:29;;;;;;;;;;;;;;;;;;5071097;28;904;-67
2023/10/12 17:06:54;;;;;;;;;;;;;;;;;;5071343;28;897;-67
2023/10/12 17:09:19;;;;;;;;;;;;;;;;;;5071654;28;907;-67
2023/10/12 17:11:45;;;;;;;;;;;;;;;;;;5069791;28;892;-67
2023/10/12 17:14:10;;;;;;;;;;;;;;;;;;5071537;28;1977;-67
2023/10/12 17:16:37;;;;;;;;;;;;;;;;;;5072181;28;837;-68
2023/10/12 17:19:03;;;;;;;;;;;;;;;;;;5071554;28;880;-67
2023/10/12 17:21:29;;;;;;;;;;;;;;;;;;5071564;28;808;-67
2023/10/12 17:23:57;;;;;;;;;;;;;;;;;;5071902;28;856;-67
2023/10/12 17:26:23;;;;;;;;;;;;;;;;;;5071000;28;825;-68
2023/10/12 17:28:48;;;;;;;;;;;;;;;;;;5070599;28;896;-67
2023/10/12 17:31:15;;;;;;;;;;;;;;;;;;5071091;28;924;-67
2023/10/12 17:33:42;;;;;;;;;;;;;;;;;;5070475;28;1945;-67
2023/10/12 17:36:16;;;;;;;;;;;;;;;;;;5073352;28;879;-67
2023/10/12 17:38:43;;;;;;;;;;;;;;;;;;5074218;28;935;-67
2023/10/12 17:41:09;;;;;;;;;;;;;;;;;;5074425;28;881;-67
2023/10/12 17:43:34;;;;;;;;;;;;;;;;;;5073769;28;1041;-67
2023/10/12 17:46:01;;;;;;;;;;;;;;;;;;5074530;28;832;-67
2023/10/12 17:48:27;;;;;;;;;;;;;;;;;;5073873;28;911;-67
2023/10/12 17:50:52;;;;;;;;;;;;;;;;;;5074365;28;1227;-67
2023/10/12 17:53:17;;;;;;;;;;;;;;;;;;5072474;28;1969;-67
2023/10/12 17:55:43;;;;;;;;;;;;;;;;;;5073480;28;1054;-67
2023/10/12 17:58:08;;;;;;;;;;;;;;;;;;5074137;28;982;-67
2023/10/12 18:00:33;;;;;;;;;;;;;;;;;;5073601;28;906;-67
2023/10/12 18:03:02;;;;;;;;;;;;;;;;;;5074171;28;836;-67
2023/10/12 18:05:28;;;;;;;;;;;;;;;;;;5074076;28;896;-67
2023/10/12 18:07:56;;;;;;;;;;;;;;;;;;5075061;28;1084;-67
2023/10/12 18:10:21;;;;;;;;;;;;;;;;;;5060873;28;1199;-67
2023/10/12 18:12:46;;;;;;;;;;;;;;;;;;5053865;28;1890;-67
2023/10/12 18:15:12;;;;;;;;;;;;;;;;;;5054763;28;945;-67
2023/10/12 18:17:38;;;;;;;;;;;;;;;;;;5054142;28;894;-67
2023/10/12 18:20:05;;;;;;;;;;;;;;;;;;5054489;28;849;-67
2023/10/12 18:22:32;;;;;;;;;;;;;;;;;;5052647;28;880;-68
2023/10/12 18:24:58;;;;;;;;;;;;;;;;;;5054135;28;875;-68
2023/10/12 18:27:23;;;;;;;;;;;;;;;;;;5054489;28;900;-67
2023/10/12 18:29:48;;;;;;;;;;;;;;;;;;5036129;28;888;-67
2023/10/12 18:32:21;;;;;;;;;;;;;;;;;;5054088;28;1023;-67
2023/10/12 18:34:47;;;;;;;;;;;;;;;;;;5053831;28;1899;-67
2023/10/12 18:37:13;;;;;;;;;;;;;;;;;;5053784;28;965;-67
2023/10/12 18:39:40;;;;;;;;;;;;;;;;;;5053370;28;810;-67
2023/10/12 18:42:05;;;;;;;;;;;;;;;;;;5053088;28;1123;-67
2023/10/12 18:44:31;;;;;;;;;;;;;;;;;;5053893;28;785;-68
2023/10/12 18:46:57;;;;;;;;;;;;;;;;;;5053976;28;879;-67
2023/10/12 18:49:22;;;;;;;;;;;;;;;;;;5052925;28;1200;-67
2023/10/12 18:51:48;;;;;;;;;;;;;;;;;;5053233;28;1167;-68
2023/10/12 18:54:13;;;;;;;;;;;;;;;;;;5053643;28;1967;-68
2023/10/12 18:56:39;;;;;;;;;;;;;;;;;;5051981;28;1409;-68
2023/10/12 18:59:07;;;;;;;;;;;;;;;;;;5054867;28;845;-69
2023/10/12 19:01:33;;;;;;;;;;;;;;;;;;5054097;28;924;-68
2023/10/12 19:03:59;;;;;;;;;;;;;;;;;;5054047;28;989;-68
2023/10/12 19:06:25;;;;;;;;;;;;;;;;;;5053163;28;1379;-68
2023/10/12 19:08:50;;;;;;;;;;;;;;;;;;5054816;28;865;-68
2023/10/12 19:11:16;;;;;;;;;;;;;;;;;;5053142;28;904;-68
2023/10/12 19:13:46;;;;;;;;;;;;;;;;;;5053740;28;1971;-68
2023/10/12 19:16:12;;;;;;;;;;;;;;;;;;5054346;28;928;-68
2023/10/12 19:18:37;;;;;;;;;;;;;;;;;;5053741;28;860;-69